Vision — WDF6306 — position and weather

sailwx.info

Track history (hours):
 
Tides and Currents Weather Stations Pressure Air Temp Water Temp Dewpoint Dewpoint Depression Visibility Wind Speed Wind Dir Waves Ship Positions

Vision

Owner: INTREPID SHIP MANAGEMENT, JACKSONVILLE, FL. More information available from US FCC via Universal Licensing System and Coast Guard Vessel Documentation Center.

Last reported at 2014-Nov-25 23:28 UTC. Time now 2014-Nov-26 00:22 UTC.
Position N 38°02' W 122°08'.

Length 199 m; draft 6.7 m.

Type: Towing. MMSI: 366904000.

Date/timePositionNaut miles runAvg speedWind from/ knotsBaromVisibWave heightAir tempDewpointWater temp
2014-Nov-25 23:28N 38°02' W 122°08'0 0.0
2014-Nov-25 22:28N 38°02' W 122°08'0 0.0
2014-Nov-25 21:28N 38°02' W 122°08'0 0.0
2014-Nov-25 20:28N 38°02' W 122°08'0 0.0
2014-Nov-25 19:28N 38°02' W 122°08'0 0.0
2014-Nov-25 18:22N 38°02' W 122°08'0 0.0
2014-Nov-25 17:28N 38°02' W 122°08'0 0.0
2014-Nov-25 16:28N 38°02' W 122°08'0 0.0
2014-Nov-25 15:28N 38°02' W 122°08'0 0.0
2014-Nov-25 14:28N 38°02' W 122°08'0 0.0
2014-Nov-25 13:28N 38°02' W 122°08'0 0.0
2014-Nov-25 12:28N 38°02' W 122°08'0 0.0
2014-Nov-25 11:28N 38°02' W 122°08'0 0.0
2014-Nov-25 10:28N 38°02' W 122°08'0 0.0
2014-Nov-25 09:28N 38°02' W 122°08'0 0.0
2014-Nov-25 08:28N 38°02' W 122°08'0 0.0
2014-Nov-25 07:28N 38°02' W 122°08'0 0.0
2014-Nov-25 06:28N 38°02' W 122°08'0 0.0
2014-Nov-25 05:28N 38°02' W 122°08'0 0.0
2014-Nov-25 04:28N 38°02' W 122°08'0 0.0
2014-Nov-25 03:28N 38°02' W 122°08'0 0.0
2014-Nov-25 02:28N 38°02' W 122°08'0 0.0
2014-Nov-25 01:28N 38°02' W 122°08'0 0.0
2014-Nov-25 00:16N 38°02' W 122°08'0 0.0
2014-Nov-24 23:33N 38°02' W 122°08'6 6.2
2014-Nov-24 22:33N 38°04' W 122°15'9 8.9
2014-Nov-24 21:33N 37°59' W 122°25'9 8.6
2014-Nov-24 20:33N 37°51' W 122°24'6 5.4
2014-Nov-24 19:31N 37°46' W 122°21'0 0.0
2014-Nov-24 18:31N 37°46' W 122°21'0 0.0
2014-Nov-24 17:31N 37°46' W 122°21'0 0.0
2014-Nov-24 16:31N 37°46' W 122°21'0 0.1
2014-Nov-24 15:28N 37°46' W 122°21'0 0.2
2014-Nov-24 14:31N 37°46' W 122°21'0 0.0
2014-Nov-24 13:31N 37°46' W 122°21'0 0.0
2014-Nov-24 12:31N 37°46' W 122°21'0 0.0
2014-Nov-24 11:31N 37°46' W 122°21'0 0.2
2014-Nov-24 10:31N 37°46' W 122°21'0 0.1
2014-Nov-24 09:31N 37°46' W 122°21'0 0.0
2014-Nov-24 08:31N 37°46' W 122°21'0 0.0
2014-Nov-24 07:31N 37°46' W 122°21'0 0.0
2014-Nov-24 06:31N 37°46' W 122°21'0 0.0
2014-Nov-24 05:31N 37°46' W 122°21'0 0.1
2014-Nov-24 04:33N 37°46' W 122°21'0 0.2
2014-Nov-24 03:33N 37°46' W 122°21'2 2.3
2014-Nov-24 02:33N 37°48' W 122°23'9 9.2
2014-Nov-24 01:33N 37°47' W 122°34'10 9.9
2014-Nov-24 00:33N 37°42' W 122°45'9 9.3
2014-Nov-23 23:33N 37°36' W 122°55'9 9.4
2014-Nov-23 22:33N 37°32' W 123°05'10 9.7
2014-Nov-23 21:33N 37°32' W 123°17'18 8.9
2014-Nov-23 19:33N 37°39' W 123°38'10 9.6
2014-Nov-23 18:33N 37°46' W 123°47'12 9.3
2014-Nov-23 17:18N 37°54' W 123°58'  
2014-Nov-20 20:22N 48°00' W 125°27'910.3
2014-Nov-20 19:29N 48°08' W 125°20'1010.4
2014-Nov-20 18:33N 48°17' W 125°13'1110.4
2014-Nov-20 17:30N 48°26' W 125°05'8 9.0
2014-Nov-20 16:33N 48°31' W 124°55'1111.2
2014-Nov-20 15:33N 48°29' W 124°39'1312.8
2014-Nov-20 14:33N 48°24' W 124°20'1313.2
2014-Nov-20 13:33N 48°19' W 124°02'1312.8
2014-Nov-20 12:33N 48°16' W 123°44'1111.5
2014-Nov-20 11:33N 48°14' W 123°27'9 8.4
2014-Nov-20 10:32N 48°12' W 123°14'1211.8
2014-Nov-20 09:33N 48°20' W 123°01'1110.9
2014-Nov-20 08:33N 48°26' W 122°47'9 8.9
2014-Nov-20 07:33N 48°32' W 122°37'2 1.5
2014-Nov-20 06:30N 48°31' W 122°35'0 0.0
2014-Nov-20 05:30N 48°31' W 122°35'0 0.0
2014-Nov-20 04:30N 48°31' W 122°35'0 0.0
2014-Nov-20 03:30N 48°31' W 122°35'0 0.0
2014-Nov-20 02:33N 48°31' W 122°35'0 0.0
2014-Nov-20 01:33N 48°31' W 122°35'0 0.0
2014-Nov-20 00:30N 48°31' W 122°35'0 0.0
2014-Nov-19 23:30N 48°31' W 122°35'0 0.0
2014-Nov-19 22:33N 48°31' W 122°35'0 0.0
2014-Nov-19 21:30N 48°31' W 122°35'0 0.0
2014-Nov-19 20:30N 48°31' W 122°35'0 0.0
2014-Nov-19 19:24N 48°31' W 122°35'0 0.0
2014-Nov-19 18:30N 48°31' W 122°35'0 0.0
2014-Nov-19 17:33N 48°31' W 122°35'0 0.0
2014-Nov-19 16:30N 48°31' W 122°35'0 0.0
2014-Nov-19 15:30N 48°31' W 122°35'0 0.0
2014-Nov-19 14:30N 48°31' W 122°35'0 0.0
2014-Nov-19 13:30N 48°31' W 122°35'0 0.0
2014-Nov-19 12:24N 48°31' W 122°35'0 0.0
2014-Nov-19 11:33N 48°31' W 122°35'0 0.0
2014-Nov-19 10:33N 48°31' W 122°35'0 0.0
2014-Nov-19 09:30N 48°31' W 122°35'0 0.0
2014-Nov-19 08:30N 48°31' W 122°35'0 0.0
2014-Nov-19 07:30N 48°31' W 122°35'0 0.0
2014-Nov-19 06:30N 48°31' W 122°35'0 0.0
2014-Nov-19 05:33N 48°31' W 122°35'0 0.0
2014-Nov-19 04:30N 48°31' W 122°35'0 0.0
2014-Nov-19 03:30N 48°31' W 122°35'0 0.0
2014-Nov-19 02:30N 48°31' W 122°35'0 0.0
2014-Nov-19 01:30N 48°31' W 122°35'0 0.0
2014-Nov-19 00:30N 48°31' W 122°35'0 0.0
2014-Nov-18 23:30N 48°31' W 122°35'0 0.0
2014-Nov-18 22:30N 48°31' W 122°35'0 0.0
2014-Nov-18 21:30N 48°31' W 122°35'0 0.0
2014-Nov-18 20:30N 48°31' W 122°35'0 0.0
2014-Nov-18 19:33N 48°31' W 122°35'0 0.0
2014-Nov-18 18:30N 48°31' W 122°35'0 0.0
2014-Nov-18 17:30N 48°31' W 122°35'0 0.0
2014-Nov-18 16:30N 48°31' W 122°35'0 0.0
2014-Nov-18 15:33N 48°31' W 122°35'0 0.2
2014-Nov-18 14:26N 48°31' W 122°35'0 0.4
2014-Nov-18 13:28N 48°31' W 122°35'0 0.0
2014-Nov-18 12:28N 48°31' W 122°35'0 0.0
2014-Nov-18 11:28N 48°31' W 122°35'0 0.0
2014-Nov-18 10:25N 48°31' W 122°35'0 0.1
2014-Nov-18 09:22N 48°31' W 122°35'0 0.1
2014-Nov-18 08:19N 48°31' W 122°35'0 0.1
2014-Nov-18 07:28N 48°31' W 122°35'0 0.2
2014-Nov-18 06:28N 48°31' W 122°35'0 0.0
2014-Nov-18 05:28N 48°31' W 122°35'0 0.1
2014-Nov-18 04:28N 48°31' W 122°35'5 5.3
2014-Nov-18 03:33N 48°31' W 122°42'1110.6
2014-Nov-18 02:32N 48°20' W 122°46'1011.5
2014-Nov-18 01:39N 48°10' W 122°44'215.6
2014-Nov-18 01:32N 48°09' W 122°42'215.2
2014-Nov-18 01:24N 48°07' W 122°40'1214.7
2014-Nov-18 00:33N 47°56' W 122°32'114.0
2014-Nov-18 00:29N 47°56' W 122°31'1212.7
2014-Nov-17 23:34N 47°44' W 122°26'112.2
2014-Nov-17 23:28N 47°43' W 122°26'9 9.4
2014-Nov-17 22:33N 47°34' W 122°26'0 9.0
2014-Nov-17 22:33N 47°34' W 122°26'1211.8
2014-Nov-17 21:34N 47°23' W 122°21'7 6.5
2014-Nov-17 20:32N 47°17' W 122°25'1 0.0
2014-Nov-16 18:22N 47°17' W 122°23'2 2.0
2014-Nov-16 17:33N 47°17' W 122°25'6 6.5
2014-Nov-16 16:40N 47°23' W 122°22'111.8
2014-Nov-16 16:34N 47°24' W 122°23'212.4
2014-Nov-16 16:24N 47°26' W 122°24'1112.8
2014-Nov-16 15:34N 47°36' W 122°27'0 7.8
2014-Nov-16 15:30N 47°37' W 122°26'1010.3
2014-Nov-16 14:34N 47°46' W 122°27'111.4
2014-Nov-16 14:30N 47°47' W 122°27'1111.8
2014-Nov-16 13:33N 47°57' W 122°34'110.3
2014-Nov-16 13:29N 47°58' W 122°35'1011.2
2014-Nov-16 12:33N 48°07' W 122°41'710.4
2014-Nov-16 11:53N 48°11' W 122°50'411.0
2014-Nov-16 11:34N 48°11' W 122°55'1111.3
2014-Nov-16 10:34N 48°11' W 123°12'010.6
2014-Nov-16 10:32N 48°11' W 123°13'1010.0
2014-Nov-16 09:34N 48°11' W 123°27'8 8.3
2014-Nov-16 08:34N 48°13' W 123°39'9 8.6
2014-Nov-16 07:34N 48°13' W 123°52'8 7.8
2014-Nov-16 06:33N 48°16' W 124°03'7 7.3
2014-Nov-16 05:32N 48°19' W 124°13'8 8.3
2014-Nov-16 04:33N 48°23' W 124°24'8 8.3
2014-Nov-16 03:34N 48°26' W 124°36'8 8.0
2014-Nov-16 02:33N 48°28' W 124°47'8 7.7
2014-Nov-16 01:33N 48°28' W 124°59'8 7.9
2014-Nov-16 00:33N 48°22' W 125°06'8 7.8
2014-Nov-15 23:33N 48°16' W 125°13'  
Track history (hours):
 
Tides and Currents Weather Stations Pressure Air Temp Water Temp Dewpoint Dewpoint Depression Visibility Wind Speed Wind Dir Waves Ship Positions

Vision

Owner: INTREPID SHIP MANAGEMENT, JACKSONVILLE, FL. More information available from US FCC via Universal Licensing System and Coast Guard Vessel Documentation Center.

Last reported at 2014-Nov-25 23:28 UTC. Time now 2014-Nov-26 00:22 UTC.
Position N 38°02' W 122°08'.

Length 199 m; draft 6.7 m.

Type: Towing. MMSI: 366904000.

Date/timePositionNaut miles runAvg speedWind from/ knotsBaromVisibWave heightAir tempDewpointWater temp
2014-Nov-25 23:28N 38°02' W 122°08'0 0.0
2014-Nov-25 22:28N 38°02' W 122°08'0 0.0
2014-Nov-25 21:28N 38°02' W 122°08'0 0.0
2014-Nov-25 20:28N 38°02' W 122°08'0 0.0
2014-Nov-25 19:28N 38°02' W 122°08'0 0.0
2014-Nov-25 18:22N 38°02' W 122°08'0 0.0
2014-Nov-25 17:28N 38°02' W 122°08'0 0.0
2014-Nov-25 16:28N 38°02' W 122°08'0 0.0
2014-Nov-25 15:28N 38°02' W 122°08'0 0.0
2014-Nov-25 14:28N 38°02' W 122°08'0 0.0
2014-Nov-25 13:28N 38°02' W 122°08'0 0.0
2014-Nov-25 12:28N 38°02' W 122°08'0 0.0
2014-Nov-25 11:28N 38°02' W 122°08'0 0.0
2014-Nov-25 10:28N 38°02' W 122°08'0 0.0
2014-Nov-25 09:28N 38°02' W 122°08'0 0.0
2014-Nov-25 08:28N 38°02' W 122°08'0 0.0
2014-Nov-25 07:28N 38°02' W 122°08'0 0.0
2014-Nov-25 06:28N 38°02' W 122°08'0 0.0
2014-Nov-25 05:28N 38°02' W 122°08'0 0.0
2014-Nov-25 04:28N 38°02' W 122°08'0 0.0
2014-Nov-25 03:28N 38°02' W 122°08'0 0.0
2014-Nov-25 02:28N 38°02' W 122°08'0 0.0
2014-Nov-25 01:28N 38°02' W 122°08'0 0.0
2014-Nov-25 00:16N 38°02' W 122°08'0 0.0
2014-Nov-24 23:33N 38°02' W 122°08'6 6.2
2014-Nov-24 22:33N 38°04' W 122°15'9 8.9
2014-Nov-24 21:33N 37°59' W 122°25'9 8.6
2014-Nov-24 20:33N 37°51' W 122°24'6 5.4
2014-Nov-24 19:31N 37°46' W 122°21'0 0.0
2014-Nov-24 18:31N 37°46' W 122°21'0 0.0
2014-Nov-24 17:31N 37°46' W 122°21'0 0.0
2014-Nov-24 16:31N 37°46' W 122°21'0 0.1
2014-Nov-24 15:28N 37°46' W 122°21'0 0.2
2014-Nov-24 14:31N 37°46' W 122°21'0 0.0
2014-Nov-24 13:31N 37°46' W 122°21'0 0.0
2014-Nov-24 12:31N 37°46' W 122°21'0 0.0
2014-Nov-24 11:31N 37°46' W 122°21'0 0.2
2014-Nov-24 10:31N 37°46' W 122°21'0 0.1
2014-Nov-24 09:31N 37°46' W 122°21'0 0.0
2014-Nov-24 08:31N 37°46' W 122°21'0 0.0
2014-Nov-24 07:31N 37°46' W 122°21'0 0.0
2014-Nov-24 06:31N 37°46' W 122°21'0 0.0
2014-Nov-24 05:31N 37°46' W 122°21'0 0.1
2014-Nov-24 04:33N 37°46' W 122°21'0 0.2
2014-Nov-24 03:33N 37°46' W 122°21'2 2.3
2014-Nov-24 02:33N 37°48' W 122°23'9 9.2
2014-Nov-24 01:33N 37°47' W 122°34'10 9.9
2014-Nov-24 00:33N 37°42' W 122°45'9 9.3
2014-Nov-23 23:33N 37°36' W 122°55'9 9.4
2014-Nov-23 22:33N 37°32' W 123°05'10 9.7
2014-Nov-23 21:33N 37°32' W 123°17'18 8.9
2014-Nov-23 19:33N 37°39' W 123°38'10 9.6
2014-Nov-23 18:33N 37°46' W 123°47'12 9.3
2014-Nov-23 17:18N 37°54' W 123°58'  
2014-Nov-20 20:22N 48°00' W 125°27'910.3
2014-Nov-20 19:29N 48°08' W 125°20'1010.4
2014-Nov-20 18:33N 48°17' W 125°13'1110.4
2014-Nov-20 17:30N 48°26' W 125°05'8 9.0
2014-Nov-20 16:33N 48°31' W 124°55'1111.2
2014-Nov-20 15:33N 48°29' W 124°39'1312.8
2014-Nov-20 14:33N 48°24' W 124°20'1313.2
2014-Nov-20 13:33N 48°19' W 124°02'1312.8
2014-Nov-20 12:33N 48°16' W 123°44'1111.5
2014-Nov-20 11:33N 48°14' W 123°27'9 8.4
2014-Nov-20 10:32N 48°12' W 123°14'1211.8
2014-Nov-20 09:33N 48°20' W 123°01'1110.9
2014-Nov-20 08:33N 48°26' W 122°47'9 8.9
2014-Nov-20 07:33N 48°32' W 122°37'2 1.5
2014-Nov-20 06:30N 48°31' W 122°35'0 0.0
2014-Nov-20 05:30N 48°31' W 122°35'0 0.0
2014-Nov-20 04:30N 48°31' W 122°35'0 0.0
2014-Nov-20 03:30N 48°31' W 122°35'0 0.0
2014-Nov-20 02:33N 48°31' W 122°35'0 0.0
2014-Nov-20 01:33N 48°31' W 122°35'0 0.0
2014-Nov-20 00:30N 48°31' W 122°35'0 0.0
2014-Nov-19 23:30N 48°31' W 122°35'0 0.0
2014-Nov-19 22:33N 48°31' W 122°35'0 0.0
2014-Nov-19 21:30N 48°31' W 122°35'0 0.0
2014-Nov-19 20:30N 48°31' W 122°35'0 0.0
2014-Nov-19 19:24N 48°31' W 122°35'0 0.0
2014-Nov-19 18:30N 48°31' W 122°35'0 0.0
2014-Nov-19 17:33N 48°31' W 122°35'0 0.0
2014-Nov-19 16:30N 48°31' W 122°35'0 0.0
2014-Nov-19 15:30N 48°31' W 122°35'0 0.0
2014-Nov-19 14:30N 48°31' W 122°35'0 0.0
2014-Nov-19 13:30N 48°31' W 122°35'0 0.0
2014-Nov-19 12:24N 48°31' W 122°35'0 0.0
2014-Nov-19 11:33N 48°31' W 122°35'0 0.0
2014-Nov-19 10:33N 48°31' W 122°35'0 0.0
2014-Nov-19 09:30N 48°31' W 122°35'0 0.0
2014-Nov-19 08:30N 48°31' W 122°35'0 0.0
2014-Nov-19 07:30N 48°31' W 122°35'0 0.0
2014-Nov-19 06:30N 48°31' W 122°35'0 0.0
2014-Nov-19 05:33N 48°31' W 122°35'0 0.0
2014-Nov-19 04:30N 48°31' W 122°35'0 0.0
2014-Nov-19 03:30N 48°31' W 122°35'0 0.0
2014-Nov-19 02:30N 48°31' W 122°35'0 0.0
2014-Nov-19 01:30N 48°31' W 122°35'0 0.0
2014-Nov-19 00:30N 48°31' W 122°35'0 0.0
2014-Nov-18 23:30N 48°31' W 122°35'0 0.0
2014-Nov-18 22:30N 48°31' W 122°35'0 0.0
2014-Nov-18 21:30N 48°31' W 122°35'0 0.0
2014-Nov-18 20:30N 48°31' W 122°35'0 0.0
2014-Nov-18 19:33N 48°31' W 122°35'0 0.0
2014-Nov-18 18:30N 48°31' W 122°35'0 0.0
2014-Nov-18 17:30N 48°31' W 122°35'0 0.0
2014-Nov-18 16:30N 48°31' W 122°35'0 0.0
2014-Nov-18 15:33N 48°31' W 122°35'0 0.2
2014-Nov-18 14:26N 48°31' W 122°35'0 0.4
2014-Nov-18 13:28N 48°31' W 122°35'0 0.0
2014-Nov-18 12:28N 48°31' W 122°35'0 0.0
2014-Nov-18 11:28N 48°31' W 122°35'0 0.0
2014-Nov-18 10:25N 48°31' W 122°35'0 0.1
2014-Nov-18 09:22N 48°31' W 122°35'0 0.1
2014-Nov-18 08:19N 48°31' W 122°35'0 0.1
2014-Nov-18 07:28N 48°31' W 122°35'0 0.2
2014-Nov-18 06:28N 48°31' W 122°35'0 0.0
2014-Nov-18 05:28N 48°31' W 122°35'0 0.1
2014-Nov-18 04:28N 48°31' W 122°35'5 5.3
2014-Nov-18 03:33N 48°31' W 122°42'1110.6
2014-Nov-18 02:32N 48°20' W 122°46'1011.5
2014-Nov-18 01:39N 48°10' W 122°44'215.6
2014-Nov-18 01:32N 48°09' W 122°42'215.2
2014-Nov-18 01:24N 48°07' W 122°40'1214.7
2014-Nov-18 00:33N 47°56' W 122°32'114.0
2014-Nov-18 00:29N 47°56' W 122°31'1212.7
2014-Nov-17 23:34N 47°44' W 122°26'112.2
2014-Nov-17 23:28N 47°43' W 122°26'9 9.4
2014-Nov-17 22:33N 47°34' W 122°26'0 9.0
2014-Nov-17 22:33N 47°34' W 122°26'1211.8
2014-Nov-17 21:34N 47°23' W 122°21'7 6.5
2014-Nov-17 20:32N 47°17' W 122°25'1 0.0
2014-Nov-16 18:22N 47°17' W 122°23'2 2.0
2014-Nov-16 17:33N 47°17' W 122°25'6 6.5
2014-Nov-16 16:40N 47°23' W 122°22'111.8
2014-Nov-16 16:34N 47°24' W 122°23'212.4
2014-Nov-16 16:24N 47°26' W 122°24'1112.8
2014-Nov-16 15:34N 47°36' W 122°27'0 7.8
2014-Nov-16 15:30N 47°37' W 122°26'1010.3
2014-Nov-16 14:34N 47°46' W 122°27'111.4
2014-Nov-16 14:30N 47°47' W 122°27'1111.8
2014-Nov-16 13:33N 47°57' W 122°34'110.3
2014-Nov-16 13:29N 47°58' W 122°35'1011.2
2014-Nov-16 12:33N 48°07' W 122°41'710.4
2014-Nov-16 11:53N 48°11' W 122°50'411.0
2014-Nov-16 11:34N 48°11' W 122°55'1111.3
2014-Nov-16 10:34N 48°11' W 123°12'010.6
2014-Nov-16 10:32N 48°11' W 123°13'1010.0
2014-Nov-16 09:34N 48°11' W 123°27'8 8.3
2014-Nov-16 08:34N 48°13' W 123°39'9 8.6
2014-Nov-16 07:34N 48°13' W 123°52'8 7.8
2014-Nov-16 06:33N 48°16' W 124°03'7 7.3
2014-Nov-16 05:32N 48°19' W 124°13'8 8.3
2014-Nov-16 04:33N 48°23' W 124°24'8 8.3
2014-Nov-16 03:34N 48°26' W 124°36'8 8.0
2014-Nov-16 02:33N 48°28' W 124°47'8 7.7
2014-Nov-16 01:33N 48°28' W 124°59'8 7.9
2014-Nov-16 00:33N 48°22' W 125°06'8 7.8
2014-Nov-15 23:33N 48°16' W 125°13'  

Dump ship's entire track history